Time;durP1;ratioP1;P1;durP2;ratioP2;P2;SDS_P1;SDS_P2;PMS_P1;PMS_P2;Temp;Humidity;BMP_temperature;BMP_pressure;BME280_temperature;BME280_humidity;BME280_pressure;Samples;Min_cycle;Max_cycle;Signal;HPM_P1;HPM_P2
2022/07/04 00:00:19;;;;;;;9.32;8.32;;;16.60;99.90;;;;;;10293412;28;20042;-84
2022/07/04 00:05:20;;;;;;;9.32;7.57;;;16.60;99.90;;;;;;10307967;28;20069;-84
2022/07/04 00:10:21;;;;;;;10.40;8.25;;;16.60;99.90;;;;;;10310952;28;20113;-84
2022/07/04 00:15:21;;;;;;;11.30;8.57;;;16.60;99.90;;;;;;10313300;28;20030;-85
2022/07/04 00:20:22;;;;;;;10.57;8.65;;;16.60;99.90;;;;;;10314925;28;20038;-85
2022/07/04 00:25:22;;;;;;;10.70;8.32;;;16.60;99.90;;;;;;10312761;28;20101;-83
2022/07/04 00:30:23;;;;;;;11.73;8.55;;;16.50;99.90;;;;;;10309102;28;20030;-83
2022/07/04 00:35:24;;;;;;;11.63;7.97;;;16.60;99.90;;;;;;10307265;28;20037;-83
2022/07/04 00:40:24;;;;;;;10.98;8.43;;;16.50;99.90;;;;;;10306597;28;20061;-85
2022/07/04 00:45:25;;;;;;;10.77;8.45;;;16.50;99.90;;;;;;10311519;28;20817;-83
2022/07/04 00:50:26;;;;;;;12.50;8.48;;;16.50;99.90;;;;;;10299999;28;20874;-83
2022/07/04 00:55:27;;;;;;;12.95;9.50;;;16.40;99.90;;;;;;10309917;28;20042;-84
2022/07/04 01:00:28;;;;;;;11.55;8.90;;;16.40;99.90;;;;;;10311053;28;20551;-84
2022/07/04 01:05:29;;;;;;;13.43;9.48;;;16.40;99.90;;;;;;10309424;28;20069;-84
2022/07/04 01:10:30;;;;;;;12.90;9.20;;;16.30;99.90;;;;;;10323558;28;20101;-84
2022/07/04 01:15:30;;;;;;;14.15;10.45;;;16.30;99.90;;;;;;10320641;28;20038;-83
2022/07/04 01:20:36;;;;;;;12.13;9.40;;;16.30;99.90;;;;;;10306833;28;20482;-83
2022/07/04 01:25:36;;;;;;;14.88;10.30;;;16.20;99.90;;;;;;10301153;28;20027;-84
2022/07/04 01:30:37;;;;;;;14.10;9.65;;;16.10;99.90;;;;;;10300224;28;20027;-84
2022/07/04 01:35:38;;;;;;;12.55;9.35;;;16.10;99.90;;;;;;10313717;28;20048;-85
2022/07/04 01:40:39;;;;;;;16.08;11.10;;;16.10;99.90;;;;;;10302909;28;20390;-84
2022/07/04 01:45:39;;;;;;;18.25;12.13;;;16.00;99.90;;;;;;10294783;28;20462;-83
2022/07/04 01:50:40;;;;;;;15.50;10.23;;;15.90;99.90;;;;;;10303440;28;20026;-83
2022/07/04 01:55:40;;;;;;;15.30;11.38;;;15.90;99.90;;;;;;10315219;28;20053;-84
2022/07/04 02:06:00;;;;;;;15.48;11.10;;;15.80;99.90;;;;;;10313103;28;20035;-85
2022/07/04 02:11:01;;;;;;;15.25;10.70;;;15.80;99.90;;;;;;10303143;28;20391;-86
2022/07/04 02:16:01;;;;;;;15.07;11.02;;;15.70;99.90;;;;;;10307650;28;20570;-83
2022/07/04 02:21:03;;;;;;;16.20;10.80;;;15.70;99.90;;;;;;10308594;28;20502;-83
2022/07/04 02:26:04;;;;;;;19.63;13.65;;;15.70;99.90;;;;;;10299507;28;20026;-85
2022/07/04 02:31:05;;;;;;;20.02;13.25;;;15.60;99.90;;;;;;10307272;28;20093;-84
2022/07/04 02:36:05;;;;;;;14.63;10.45;;;15.60;99.90;;;;;;10300500;28;20034;-84
2022/07/04 02:41:06;;;;;;;15.52;10.82;;;15.60;99.90;;;;;;10297993;28;20153;-84
2022/07/04 02:46:06;;;;;;;16.35;11.63;;;15.70;99.90;;;;;;10292405;28;20034;-85
2022/07/04 02:51:07;;;;;;;18.98;13.15;;;15.70;99.90;;;;;;10301801;28;20038;-84
2022/07/04 02:56:08;;;;;;;17.38;12.15;;;15.70;99.90;;;;;;10298955;28;20043;-86
2022/07/04 03:01:09;;;;;;;14.88;11.68;;;15.50;99.90;;;;;;10311917;28;20035;-84
2022/07/04 03:06:10;;;;;;;18.25;13.05;;;15.50;99.90;;;;;;10313494;28;20046;-84
2022/07/04 03:11:11;;;;;;;16.70;11.80;;;15.50;99.90;;;;;;10310631;28;20131;-84
2022/07/04 03:16:11;;;;;;;17.95;13.50;;;15.50;99.90;;;;;;10310914;28;20478;-87
2022/07/04 03:21:12;;;;;;;16.38;12.32;;;15.60;99.90;;;;;;10313299;28;20046;-82
2022/07/04 03:26:14;;;;;;;18.65;12.95;;;15.60;99.90;;;;;;10288945;28;20055;-84
2022/07/04 03:31:14;;;;;;;16.42;12.35;;;15.60;99.90;;;;;;10296614;28;20056;-82
2022/07/04 03:36:15;;;;;;;18.60;12.10;;;15.60;99.90;;;;;;10307496;28;20394;-84
2022/07/04 03:41:16;;;;;;;17.67;12.50;;;15.60;99.90;;;;;;10316528;28;20045;-82
2022/07/04 03:46:16;;;;;;;21.20;13.73;;;15.60;99.90;;;;;;10313450;28;20034;-81
2022/07/04 03:51:17;;;;;;;20.88;14.13;;;15.50;99.90;;;;;;10298474;28;20035;-82
2022/07/04 03:56:17;;;;;;;21.20;15.57;;;15.50;99.90;;;;;;10298997;28;20042;-82
2022/07/04 04:01:19;;;;;;;21.27;15.60;;;15.60;99.90;;;;;;10296599;28;20043;-83
2022/07/04 04:06:19;;;;;;;21.05;15.30;;;15.70;99.90;;;;;;10298305;28;20027;-82
2022/07/04 04:11:20;;;;;;;20.10;14.68;;;15.80;99.90;;;;;;10292873;28;20031;-82
2022/07/04 04:16:21;;;;;;;21.90;15.63;;;15.90;99.90;;;;;;10297967;28;20034;-82
2022/07/04 04:21:21;;;;;;;18.55;12.90;;;15.90;99.90;;;;;;10311206;28;20490;-83
2022/07/04 04:26:22;;;;;;;21.48;13.63;;;16.00;99.90;;;;;;10306783;28;20032;-82
2022/07/04 04:31:22;;;;;;;21.77;15.73;;;16.20;99.90;;;;;;10303249;28;20025;-80
2022/07/04 04:36:23;;;;;;;18.50;12.82;;;16.30;99.90;;;;;;10302968;28;20027;-83
2022/07/04 04:41:24;;;;;;;15.75;12.00;;;16.50;99.90;;;;;;10296823;28;20042;-83
2022/07/04 04:46:24;;;;;;;17.35;12.13;;;16.70;99.90;;;;;;10302147;28;20030;-82
2022/07/04 04:51:25;;;;;;;17.80;13.32;;;16.90;99.90;;;;;;10313168;28;20031;-83
2022/07/04 04:56:25;;;;;;;17.73;12.88;;;17.10;99.90;;;;;;10310620;28;20096;-84
2022/07/04 05:01:26;;;;;;;19.00;12.18;;;17.40;99.90;;;;;;10300260;28;20096;-82
2022/07/04 05:06:26;;;;;;;16.50;12.85;;;17.60;99.90;;;;;;10304784;28;20026;-85
2022/07/04 05:11:27;;;;;;;14.25;11.60;;;17.80;99.90;;;;;;10310153;28;20296;-86
2022/07/04 05:16:28;;;;;;;22.38;13.52;;;18.00;99.90;;;;;;10318221;28;20081;-82
2022/07/04 05:21:28;;;;;;;16.00;12.73;;;18.20;99.90;;;;;;10324579;28;20050;-83
2022/07/04 05:26:30;;;;;;;14.48;11.43;;;18.40;99.90;;;;;;10323498;28;20478;-83
2022/07/04 05:31:31;;;;;;;17.30;11.93;;;18.60;99.90;;;;;;10319485;28;20069;-82
2022/07/04 05:36:32;;;;;;;15.05;11.82;;;18.70;99.90;;;;;;10316601;28;20065;-87
2022/07/04 05:41:32;;;;;;;19.60;11.18;;;18.90;99.90;;;;;;10311978;28;20057;-83
2022/07/04 05:46:33;;;;;;;13.15;10.75;;;19.10;99.90;;;;;;10315494;28;20032;-82
2022/07/04 05:51:34;;;;;;;15.48;11.45;;;19.40;99.90;;;;;;10314521;28;20030;-85
2022/07/04 05:56:34;;;;;;;15.35;10.70;;;19.60;99.90;;;;;;10317690;28;20052;-82
2022/07/04 06:01:36;;;;;;;16.17;11.73;;;19.90;99.90;;;;;;10314246;28;20041;-81
2022/07/04 06:06:37;;;;;;;13.07;10.60;;;20.10;99.90;;;;;;10315497;28;20461;-82
2022/07/04 06:11:37;;;;;;;14.02;11.60;;;20.30;99.90;;;;;;10304535;28;20030;-84
2022/07/04 06:16:38;;;;;;;18.35;10.80;;;20.60;99.90;;;;;;10294201;28;20574;-84
2022/07/04 06:21:38;;;;;;;15.35;10.85;;;20.90;99.90;;;;;;10289857;28;20059;-84
2022/07/04 06:26:39;;;;;;;16.20;12.15;;;21.10;99.90;;;;;;10307388;28;20023;-83
2022/07/04 06:31:40;;;;;;;14.98;11.88;;;21.30;99.90;;;;;;10304864;28;20431;-82
2022/07/04 06:36:40;;;;;;;21.38;14.77;;;21.60;99.90;;;;;;10308821;28;20101;-83
2022/07/04 06:41:41;;;;;;;22.05;16.38;;;21.70;99.90;;;;;;10290631;28;20042;-83
2022/07/04 06:46:43;;;;;;;21.40;15.68;;;21.90;99.90;;;;;;10290076;28;20026;-83
2022/07/04 06:51:44;;;;;;;20.30;13.32;;;22.10;99.90;;;;;;10308218;28;20023;-82
2022/07/04 06:56:45;;;;;;;15.60;10.82;;;22.50;99.90;;;;;;10304173;28;20031;-82
2022/07/04 07:01:45;;;;;;;17.73;10.77;;;23.90;99.90;;;;;;10290694;28;20034;-84
2022/07/04 07:06:46;;;;;;;15.15;10.10;;;26.00;99.90;;;;;;10297517;28;20367;-82
2022/07/04 07:11:46;;;;;;;14.07;9.63;;;27.10;95.40;;;;;;10292360;28;20027;-82
2022/07/04 07:16:47;;;;;;;8.98;7.05;;;28.20;91.00;;;;;;10307746;28;20026;-82
2022/07/04 07:21:47;;;;;;;10.25;8.13;;;28.90;87.00;;;;;;10310951;28;20503;-83
2022/07/04 07:26:52;;;;;;;8.88;7.97;;;29.80;82.90;;;;;;10304057;28;20037;-84
2022/07/04 07:31:52;;;;;;;7.13;6.43;;;30.40;80.80;;;;;;10315064;28;20034;-82
2022/07/04 07:36:54;;;;;;;9.63;7.30;;;30.80;74.60;;;;;;10319782;28;20109;-84
2022/07/04 07:41:54;;;;;;;7.32;5.53;;;31.00;74.20;;;;;;10311914;28;20165;-84
2022/07/04 07:46:56;;;;;;;5.95;5.45;;;30.80;72.60;;;;;;10305890;28;20018;-84
2022/07/04 07:51:56;;;;;;;6.15;5.43;;;30.80;72.60;;;;;;10298897;28;20565;-84
2022/07/04 07:56:59;;;;;;;8.93;6.70;;;30.50;70.50;;;;;;10313068;28;20031;-84
2022/07/04 08:02:00;;;;;;;10.80;7.25;;;29.80;72.50;;;;;;10298582;28;20039;-82
2022/07/04 08:07:06;;;;;;;9.70;7.38;;;29.20;73.10;;;;;;10295653;28;20038;-84
2022/07/04 08:12:07;;;;;;;8.45;7.38;;;29.10;74.90;;;;;;10290149;28;20465;-81
2022/07/04 08:17:07;;;;;;;10.05;7.65;;;29.10;76.10;;;;;;10305178;28;20034;-84
2022/07/04 08:22:08;;;;;;;10.18;6.82;;;29.10;75.00;;;;;;10301815;28;20062;-83
2022/07/04 08:27:09;;;;;;;8.10;7.03;;;29.10;73.60;;;;;;10310553;28;20047;-81
2022/07/04 08:32:10;;;;;;;9.43;6.65;;;29.30;73.70;;;;;;10297839;28;20546;-82
2022/07/04 08:37:11;;;;;;;7.22;6.53;;;29.30;72.50;;;;;;10319756;28;20029;-83
2022/07/04 08:42:17;;;;;;;7.03;6.32;;;29.40;72.70;;;;;;10305069;28;20062;-82
2022/07/04 08:47:20;;;;;;;6.68;5.60;;;29.40;71.80;;;;;;10316998;28;20029;-83
2022/07/04 08:52:35;;;;;;;9.38;6.20;;;29.50;72.40;;;;;;10298657;28;20073;-84
2022/07/04 09:03:00;;;;;;;7.28;5.78;;;29.80;70.40;;;;;;10307018;28;20057;-85
2022/07/04 09:08:02;;;;;;;7.85;5.80;;;30.10;69.70;;;;;;10298962;28;20525;-84
2022/07/04 09:13:08;;;;;;;7.20;6.30;;;30.00;69.00;;;;;;10300516;28;20050;-84
2022/07/04 09:18:23;;;;;;;7.75;6.80;;;30.00;70.50;;;;;;10300672;28;20030;-86
2022/07/04 09:23:29;;;;;;;6.60;5.70;;;30.10;68.90;;;;;;10319341;28;20062;-83
2022/07/04 09:28:29;;;;;;;9.13;6.18;;;30.00;68.00;;;;;;10305163;28;20018;-82
2022/07/04 09:33:45;;;;;;;7.50;5.80;;;29.90;69.90;;;;;;10313116;28;20571;-82
2022/07/04 09:39:03;;;;;;;6.28;5.68;;;30.10;70.60;;;;;;10310119;28;20047;-84
2022/07/04 09:44:06;;;;;;;6.40;5.70;;;30.40;67.20;;;;;;10317013;28;20023;-82
2022/07/04 09:49:06;;;;;;;10.57;5.53;;;30.70;68.60;;;;;;10319956;28;20037;-84
2022/07/04 09:54:13;;;;;;;5.20;4.70;;;30.40;67.60;;;;;;10328952;28;20018;-85
2022/07/04 09:59:14;;;;;;;5.82;4.40;;;30.00;64.60;;;;;;10304736;28;20054;-84
2022/07/04 10:04:15;;;;;;;6.85;5.13;;;29.80;67.70;;;;;;10305710;28;20066;-83
2022/07/04 10:09:17;;;;;;;6.72;5.47;;;29.70;68.80;;;;;;10287644;28;20061;-85
2022/07/04 10:14:18;;;;;;;6.50;5.07;;;29.50;70.00;;;;;;10290458;28;20029;-83
2022/07/04 10:19:20;;;;;;;14.32;6.80;;;29.80;69.60;;;;;;10303786;28;20377;-84
2022/07/04 10:24:21;;;;;;;8.70;6.05;;;30.20;69.40;;;;;;10301851;28;20525;-85
2022/07/04 10:29:22;;;;;;;8.77;5.55;;;29.90;66.80;;;;;;10302390;28;20023;-82
2022/07/04 10:34:22;;;;;;;7.50;6.38;;;29.90;66.20;;;;;;10289290;28;20056;-84
2022/07/04 10:39:24;;;;;;;25.38;6.20;;;29.80;67.50;;;;;;10286323;28;20395;-83
2022/07/04 10:44:26;;;;;;;14.98;6.20;;;29.80;68.30;;;;;;10311401;28;20101;-85
2022/07/04 10:49:28;;;;;;;5.43;4.72;;;30.00;69.10;;;;;;10307922;28;20613;-85
2022/07/04 10:54:31;;;;;;;5.45;4.40;;;30.10;66.40;;;;;;10292460;28;20041;-84
2022/07/04 10:59:32;;;;;;;7.20;4.20;;;30.40;65.30;;;;;;10295239;28;20039;-82
2022/07/04 11:04:44;;;;;;;5.70;3.97;;;30.80;66.40;;;;;;10291826;28;20022;-85
2022/07/04 11:09:47;;;;;;;8.32;4.43;;;30.90;66.10;;;;;;10295585;28;20017;-83
2022/07/04 11:14:48;;;;;;;5.53;3.90;;;31.30;64.30;;;;;;10302025;28;20025;-85
2022/07/04 11:19:58;;;;;;;4.10;3.70;;;31.20;65.50;;;;;;10289797;28;20031;-85
2022/07/04 11:24:59;;;;;;;4.68;4.25;;;31.50;64.40;;;;;;10316680;28;20058;-84
2022/07/04 11:29:59;;;;;;;4.55;3.70;;;31.20;65.00;;;;;;10301608;28;20428;-83
2022/07/04 11:35:03;;;;;;;7.68;4.03;;;31.60;63.30;;;;;;10298301;28;20034;-85
2022/07/04 11:45:23;;;;;;;6.93;4.45;;;30.80;62.10;;;;;;10298230;28;20037;-83
2022/07/04 11:50:24;;;;;;;5.68;4.90;;;30.40;64.00;;;;;;10308937;28;20470;-81
2022/07/04 11:55:24;;;;;;;6.15;4.63;;;30.00;66.10;;;;;;10302473;28;20516;-84
2022/07/04 12:00:27;;;;;;;6.25;4.65;;;29.70;65.50;;;;;;10309124;28;20038;-84
2022/07/04 12:05:28;;;;;;;7.72;4.93;;;29.90;67.50;;;;;;10305783;28;20442;-83
2022/07/04 12:10:29;;;;;;;7.32;4.95;;;30.40;67.00;;;;;;10311823;28;20030;-84
2022/07/04 12:15:38;;;;;;;7.32;4.43;;;31.00;66.80;;;;;;10305708;28;20022;-82
2022/07/04 12:20:38;;;;;;;7.13;4.93;;;31.60;66.40;;;;;;10312368;28;20406;-82
2022/07/04 12:25:39;;;;;;;5.25;4.68;;;32.00;65.00;;;;;;10307829;28;20368;-83
2022/07/04 12:30:52;;;;;;;6.75;5.10;;;32.50;63.80;;;;;;10309428;28;20023;-82
2022/07/04 12:36:03;;;;;;;5.63;4.85;;;32.60;63.50;;;;;;10311632;28;20110;-82
2022/07/04 12:41:11;;;;;;;5.05;3.45;;;32.30;63.50;;;;;;10301724;28;20050;-83
2022/07/04 12:46:13;;;;;;;4.68;4.15;;;32.30;61.00;;;;;;10297254;28;20042;-84
2022/07/04 12:51:24;;;;;;;8.07;5.70;;;32.40;61.50;;;;;;10292931;28;20515;-81
2022/07/04 12:56:31;;;;;;;6.22;5.20;;;32.60;60.70;;;;;;10308673;28;20137;-83
2022/07/04 13:01:33;;;;;;;18.40;13.85;;;32.00;60.60;;;;;;10296245;28;20042;-82
2022/07/04 13:06:34;;;;;;;7.50;4.50;;;31.60;61.00;;;;;;10291870;28;20085;-81
2022/07/04 13:16:55;;;;;;;6.80;5.60;;;31.30;62.20;;;;;;10299858;28;20054;-85
2022/07/04 13:21:55;;;;;;;2.72;2.53;;;31.40;63.70;;;;;;10309560;28;20490;-81
2022/07/04 13:26:56;;;;;;;2.90;2.47;;;31.60;61.40;;;;;;10309611;28;20509;-80
2022/07/04 13:31:57;;;;;;;3.03;2.50;;;31.70;59.70;;;;;;10319144;28;20030;-82
2022/07/04 13:36:57;;;;;;;3.97;2.88;;;31.70;59.90;;;;;;10313933;28;20343;-81
2022/07/04 13:41:58;;;;;;;3.80;2.60;;;31.40;60.90;;;;;;10315795;28;20153;-83
2022/07/04 13:46:59;;;;;;;3.35;2.53;;;31.10;60.30;;;;;;10315016;28;20166;-82
2022/07/04 13:51:59;;;;;;;2.83;2.63;;;31.10;61.90;;;;;;10313461;28;20026;-82
2022/07/04 13:57:00;;;;;;;6.72;3.10;;;31.70;62.30;;;;;;10317384;28;20149;-83
2022/07/04 14:02:01;;;;;;;3.92;3.38;;;31.80;58.60;;;;;;10304916;28;20129;-83
2022/07/04 14:07:02;;;;;;;4.68;3.60;;;31.40;61.70;;;;;;10293181;28;20041;-85
2022/07/04 14:12:03;;;;;;;3.78;3.40;;;31.10;60.90;;;;;;10308238;28;20040;-82
2022/07/04 14:17:04;;;;;;;3.33;3.03;;;30.50;62.40;;;;;;10307924;28;20039;-82
2022/07/04 14:22:05;;;;;;;7.43;3.15;;;29.90;63.40;;;;;;10313184;28;20408;-84
2022/07/04 14:27:05;;;;;;;5.45;3.35;;;29.40;65.40;;;;;;10315550;28;20035;-83
2022/07/04 14:32:07;;;;;;;5.28;2.75;;;29.00;66.80;;;;;;10314173;28;20035;-81
2022/07/04 14:37:08;;;;;;;3.47;3.08;;;28.90;66.30;;;;;;10294111;28;20121;-84
2022/07/04 14:42:08;;;;;;;3.92;2.85;;;29.10;68.60;;;;;;10303083;28;20035;-84
2022/07/04 14:47:09;;;;;;;3.72;3.22;;;29.30;67.60;;;;;;10301564;28;20101;-82
2022/07/04 14:52:10;;;;;;;3.72;2.78;;;29.60;67.30;;;;;;10307358;28;20034;-82
2022/07/04 14:57:10;;;;;;;4.00;2.50;;;29.70;65.40;;;;;;10301136;28;20031;-83
2022/07/04 15:02:11;;;;;;;4.32;1.90;;;29.50;64.30;;;;;;10298209;28;20455;-84
2022/07/04 15:07:11;;;;;;;3.13;2.13;;;29.70;64.40;;;;;;10308361;28;20402;-84
2022/07/04 15:12:12;;;;;;;2.45;1.70;;;29.90;61.60;;;;;;10312217;28;20475;-83
2022/07/04 15:17:12;;;;;;;2.65;2.00;;;30.00;62.60;;;;;;10309636;28;20049;-83
2022/07/04 15:27:32;;;;;;;4.05;1.90;;;29.90;60.90;;;;;;10295598;28;20129;-84
2022/07/04 15:32:32;;;;;;;2.30;1.70;;;29.70;60.80;;;;;;10302789;28;20030;-83
2022/07/04 15:37:33;;;;;;;2.25;1.80;;;29.40;62.50;;;;;;10300105;28;20118;-86
2022/07/04 15:42:34;;;;;;;5.72;2.03;;;29.00;61.00;;;;;;10290174;28;20050;-85
2022/07/04 15:47:34;;;;;;;2.38;1.90;;;28.80;63.50;;;;;;10289188;28;20077;-82
2022/07/04 15:52:35;;;;;;;3.60;1.70;;;28.70;61.30;;;;;;10303603;28;20112;-85
2022/07/04 15:57:36;;;;;;;3.70;1.90;;;28.70;63.30;;;;;;10296249;28;20034;-86
2022/07/04 16:02:37;;;;;;;2.72;1.77;;;28.60;64.50;;;;;;10293391;28;20085;-85
2022/07/04 16:07:37;;;;;;;1.55;1.45;;;28.80;65.00;;;;;;10300396;28;20450;-81
2022/07/04 16:12:38;;;;;;;3.47;1.75;;;28.70;63.50;;;;;;10296187;28;20031;-84
2022/07/04 16:17:39;;;;;;;4.18;2.15;;;28.70;62.60;;;;;;10304785;28;20042;-82
2022/07/04 16:22:40;;;;;;;3.05;1.50;;;28.60;63.40;;;;;;10306033;28;20494;-82
2022/07/04 16:27:41;;;;;;;2.40;1.55;;;28.40;65.00;;;;;;10300250;28;20105;-84
2022/07/04 16:32:43;;;;;;;2.15;1.88;;;28.20;64.90;;;;;;10304948;28;20536;-82
2022/07/04 16:37:44;;;;;;;3.20;2.40;;;28.10;65.40;;;;;;10299168;28;20043;-84
2022/07/04 16:42:45;;;;;;;6.13;4.32;;;27.90;71.70;;;;;;10304752;28;20040;-81
2022/07/04 16:47:45;;;;;;;10.05;5.95;;;27.60;70.20;;;;;;10293729;28;20492;-82
2022/07/04 16:52:46;;;;;;;11.52;6.38;;;27.40;70.60;;;;;;10305509;28;20034;-81
2022/07/04 16:57:46;;;;;;;9.68;5.28;;;27.30;72.10;;;;;;10310647;28;20052;-83
2022/07/04 17:02:54;;;;;;;4.72;3.67;;;27.10;74.00;;;;;;10309190;28;20043;-82
2022/07/04 17:08:53;;;;;;;3.95;2.40;;;26.70;74.60;;;;;;10316777;28;20478;-83
2022/07/04 17:14:12;;;;;;;4.97;2.15;;;26.60;75.70;;;;;;10309351;28;20487;-81
2022/07/04 17:19:13;;;;;;;4.15;2.55;;;26.40;75.90;;;;;;10318497;28;20046;-79
2022/07/04 17:24:14;;;;;;;6.25;2.85;;;26.20;78.10;;;;;;10315766;28;20045;-82
2022/07/04 17:29:15;;;;;;;3.97;3.35;;;26.00;77.50;;;;;;10306409;28;20010;-81
2022/07/04 17:34:15;;;;;;;2.75;2.55;;;25.80;78.80;;;;;;10303203;28;20062;-79
2022/07/04 17:39:16;;;;;;;4.40;1.92;;;25.70;80.30;;;;;;10316603;28;20137;-82
2022/07/04 17:44:18;;;;;;;2.22;2.03;;;25.40;80.20;;;;;;10302069;28;20035;-85
2022/07/04 17:49:18;;;;;;;4.05;2.00;;;25.20;80.90;;;;;;10307064;28;20026;-82
2022/07/04 17:54:19;;;;;;;7.18;2.40;;;25.00;81.60;;;;;;10321506;28;20034;-83
2022/07/04 17:59:20;;;;;;;2.30;2.10;;;25.00;81.80;;;;;;10307709;28;20410;-82
2022/07/04 18:04:21;;;;;;;3.78;2.10;;;24.90;79.20;;;;;;10311910;28;20041;-82
2022/07/04 18:09:21;;;;;;;3.53;2.35;;;24.90;82.40;;;;;;10304910;28;20390;-85
2022/07/04 18:14:24;;;;;;;4.82;2.42;;;24.80;81.70;;;;;;10305783;28;20081;-81
2022/07/04 18:19:25;;;;;;;3.20;2.38;;;24.70;82.40;;;;;;10309116;28;20074;-82
2022/07/04 18:24:26;;;;;;;4.07;2.20;;;24.60;82.10;;;;;;10301442;28;20050;-80
2022/07/04 18:29:27;;;;;;;2.40;1.90;;;24.40;82.00;;;;;;10303438;28;20018;-84
2022/07/04 18:34:27;;;;;;;5.35;2.53;;;24.20;79.30;;;;;;10301925;28;20037;-80
2022/07/04 18:39:29;;;;;;;6.05;2.60;;;24.20;79.10;;;;;;10311426;28;20489;-84
2022/07/04 18:44:31;;;;;;;8.35;3.33;;;24.10;80.30;;;;;;10302428;28;20046;-84
2022/07/04 18:49:31;;;;;;;4.50;2.30;;;23.90;82.90;;;;;;10301921;28;20395;-81
2022/07/04 18:54:32;;;;;;;3.60;2.83;;;23.70;85.00;;;;;;10300897;28;20030;-80
2022/07/04 18:59:32;;;;;;;3.55;2.60;;;23.50;86.10;;;;;;10307465;28;20367;-82
2022/07/04 19:04:33;;;;;;;4.63;2.58;;;23.30;87.80;;;;;;10294484;28;20497;-81
2022/07/04 19:09:34;;;;;;;2.90;2.60;;;23.20;87.10;;;;;;10300807;28;20063;-82
2022/07/04 19:14:34;;;;;;;4.40;2.40;;;23.10;82.30;;;;;;10305868;28;20035;-81
2022/07/04 19:19:35;;;;;;;4.53;2.38;;;23.10;86.20;;;;;;10304311;28;20061;-87
2022/07/04 19:24:36;;;;;;;2.65;2.45;;;23.00;86.90;;;;;;10297598;28;20118;-81
2022/07/04 19:29:37;;;;;;;3.63;3.13;;;22.90;88.00;;;;;;10295345;28;20639;-81
2022/07/04 19:34:38;;;;;;;3.25;2.63;;;22.70;87.60;;;;;;10302037;28;20386;-82
2022/07/04 19:39:38;;;;;;;5.50;2.58;;;22.50;86.80;;;;;;10299522;28;20031;-81
2022/07/04 19:44:40;;;;;;;2.58;2.38;;;22.40;87.60;;;;;;10296057;28;20141;-82
2022/07/04 19:49:41;;;;;;;2.45;2.25;;;22.30;87.60;;;;;;10305682;28;20042;-80
2022/07/04 19:54:41;;;;;;;4.63;2.97;;;22.20;87.20;;;;;;10294376;28;20042;-81
2022/07/04 19:59:42;;;;;;;2.70;2.50;;;22.10;87.70;;;;;;10299704;28;20073;-81
2022/07/04 20:04:43;;;;;;;3.10;2.80;;;22.10;89.40;;;;;;10305742;28;20482;-81
2022/07/04 20:09:45;;;;;;;3.78;3.13;;;22.00;88.70;;;;;;10305796;28;20118;-82
2022/07/04 20:14:47;;;;;;;5.38;3.17;;;22.10;90.50;;;;;;10309249;28;20101;-82
2022/07/04 20:19:49;;;;;;;3.63;3.00;;;22.00;90.30;;;;;;10321080;28;20046;-80
2022/07/04 20:24:52;;;;;;;6.13;3.10;;;21.90;90.80;;;;;;10317899;28;20085;-81
2022/07/04 20:29:53;;;;;;;7.57;2.92;;;21.80;90.40;;;;;;10315545;28;20470;-82
2022/07/04 20:35:06;;;;;;;4.15;2.92;;;21.80;90.30;;;;;;10317914;28;20034;-80
2022/07/04 20:40:08;;;;;;;3.20;2.90;;;21.70;90.60;;;;;;10322299;28;20483;-82
2022/07/04 20:45:11;;;;;;;4.18;3.10;;;21.70;90.80;;;;;;10312872;28;20031;-82
2022/07/04 20:50:12;;;;;;;3.92;3.10;;;21.70;90.60;;;;;;10316281;28;20036;-81
2022/07/04 20:55:12;;;;;;;4.13;2.90;;;21.70;91.00;;;;;;10310705;28;20037;-82
2022/07/04 21:00:14;;;;;;;3.30;3.10;;;21.60;90.60;;;;;;10299280;28;20760;-82
2022/07/04 21:05:15;;;;;;;3.67;3.30;;;21.60;91.10;;;;;;10298939;28;20122;-81
2022/07/04 21:10:16;;;;;;;3.47;3.17;;;21.50;91.20;;;;;;10304084;28;20420;-82
2022/07/04 21:15:17;;;;;;;3.83;3.38;;;21.50;91.50;;;;;;10294469;28;20516;-82
2022/07/04 21:20:17;;;;;;;4.93;3.35;;;21.50;91.60;;;;;;10309511;28;20525;-81
2022/07/04 21:25:18;;;;;;;4.00;3.40;;;21.50;91.70;;;;;;10310037;28;20037;-82
2022/07/04 21:30:19;;;;;;;3.90;3.20;;;21.40;91.90;;;;;;10306142;28;20026;-82
2022/07/04 21:35:20;;;;;;;5.90;3.67;;;21.40;92.90;;;;;;10309121;28;20030;-82
2022/07/04 21:40:20;;;;;;;6.43;4.90;;;21.40;94.80;;;;;;10299089;28;20475;-82
2022/07/04 21:45:23;;;;;;;7.10;5.03;;;21.00;99.90;;;;;;10311254;28;20391;-82
2022/07/04 21:50:23;;;;;;;4.50;3.85;;;20.50;99.90;;;;;;10314177;28;20034;-82
2022/07/04 21:55:24;;;;;;;7.20;4.30;;;20.50;99.90;;;;;;10295806;28;20041;-82
2022/07/04 22:00:25;;;;;;;5.80;4.47;;;20.60;99.90;;;;;;10306683;28;20486;-81
2022/07/04 22:05:26;;;;;;;8.57;5.13;;;20.40;99.90;;;;;;10299198;28;20023;-81
2022/07/04 22:10:27;;;;;;;4.43;4.00;;;20.40;99.90;;;;;;10305340;28;20042;-81
2022/07/04 22:15:29;;;;;;;6.10;4.78;;;20.50;99.90;;;;;;10306736;28;20022;-82
2022/07/04 22:20:29;;;;;;;6.20;4.40;;;20.80;99.90;;;;;;10307079;28;20042;-81
2022/07/04 22:25:31;;;;;;;7.13;4.38;;;20.90;99.90;;;;;;10306623;28;20053;-82
2022/07/04 22:30:31;;;;;;;5.03;4.30;;;21.00;99.90;;;;;;10308435;28;20030;-82
2022/07/04 22:35:32;;;;;;;5.45;4.55;;;21.00;99.90;;;;;;10295900;28;20046;-81
2022/07/04 22:40:33;;;;;;;5.65;4.45;;;21.10;99.90;;;;;;10293633;28;20041;-82
2022/07/04 22:45:34;;;;;;;7.72;4.90;;;21.00;99.90;;;;;;10315695;28;20387;-82
2022/07/04 22:51:10;;;;;;;7.20;5.05;;;20.90;99.90;;;;;;10298304;28;20025;-81
2022/07/04 22:55:55;;;;;;;7.35;4.65;;;20.90;99.90;;;;;;10306504;28;20465;-82
2022/07/04 23:00:55;;;;;;;5.13;4.72;;;20.90;99.90;;;;;;10296562;28;20047;-82
2022/07/04 23:05:56;;;;;;;5.65;4.88;;;20.80;99.90;;;;;;10299501;28;20037;-82
2022/07/04 23:10:57;;;;;;;5.10;4.22;;;20.80;99.90;;;;;;10305776;28;20041;-81
2022/07/04 23:15:57;;;;;;;5.30;4.80;;;20.80;99.90;;;;;;10308970;28;20034;-82
2022/07/04 23:20:58;;;;;;;4.85;4.35;;;20.80;99.90;;;;;;10309619;28;20765;-82
2022/07/04 23:25:59;;;;;;;4.88;4.38;;;20.80;99.90;;;;;;10307518;28;20077;-82
2022/07/04 23:31:00;;;;;;;5.47;4.30;;;20.90;99.90;;;;;;10290999;28;20030;-82
2022/07/04 23:36:01;;;;;;;4.50;4.10;;;20.80;99.90;;;;;;10299361;28;20022;-82
2022/07/04 23:41:07;;;;;;;5.20;4.70;;;20.90;99.90;;;;;;10300666;28;20038;-82
2022/07/04 23:46:08;;;;;;;5.60;4.63;;;20.90;99.90;;;;;;10305030;28;20122;-82
2022/07/04 23:51:09;;;;;;;6.28;5.47;;;20.90;99.90;;;;;;10301262;28;20041;-82
2022/07/04 23:56:10;;;;;;;5.75;5.25;;;20.80;99.90;;;;;;10292770;28;20382;-81
